createdAt,value
2022-10-31T00:01:27.599Z,66.21
2022-10-31T00:03:55.507Z,65.31
2022-10-31T00:06:24.377Z,65.45
2022-10-31T00:08:58.006Z,65.55
2022-10-31T00:11:26.118Z,65.69
2022-10-31T00:13:53.592Z,65.81
2022-10-31T00:16:25.969Z,64.12
2022-10-31T00:18:55.532Z,62.93
2022-10-31T00:21:24.109Z,63.55
2022-10-31T00:23:51.599Z,64.06
2022-10-31T00:26:19.423Z,63.38
2022-10-31T00:28:47.139Z,63.57
2022-10-31T00:31:15.610Z,63.46
2022-10-31T00:33:43.614Z,63.81
2022-10-31T00:36:17.277Z,64.23
2022-10-31T00:38:45.993Z,64.24
2022-10-31T00:41:16.731Z,64.22
2022-10-31T00:43:44.751Z,63.55
2022-10-31T00:46:13.238Z,63.77
2022-10-31T00:48:42.082Z,64.07
2022-10-31T00:51:11.211Z,63.18
2022-10-31T00:53:40.383Z,63.59
2022-10-31T00:56:08.121Z,63.84
2022-10-31T00:58:36.026Z,63.55
2022-10-31T01:01:03.603Z,63.98
2022-10-31T01:03:33.888Z,64.05
2022-10-31T01:06:07.074Z,64.25
2022-10-31T01:08:38.232Z,65.05
2022-10-31T01:11:18.040Z,64.57
2022-10-31T01:13:46.600Z,64.68
2022-10-31T01:16:17.227Z,65.01
2022-10-31T01:18:44.668Z,64.95
2022-10-31T01:21:18.071Z,64.07
2022-10-31T01:23:45.703Z,63.50
2022-10-31T01:26:24.073Z,62.62
2022-10-31T01:28:52.996Z,61.57
2022-10-31T01:31:22.606Z,62.19
2022-10-31T01:33:50.174Z,61.74
2022-10-31T01:36:30.421Z,61.75
2022-10-31T01:39:05.440Z,62.21
2022-10-31T01:41:36.133Z,63.07
2022-10-31T01:44:24.850Z,63.38
2022-10-31T01:47:00.958Z,64.25
2022-10-31T01:49:50.082Z,64.63
2022-10-31T01:52:29.048Z,66.28
2022-10-31T01:55:02.749Z,68.61
2022-10-31T01:57:33.342Z,68.32
2022-10-31T02:00:07.777Z,69.12
2022-10-31T02:02:41.572Z,69.62
2022-10-31T02:05:17.969Z,70.17
2022-10-31T02:07:54.293Z,70.40
2022-10-31T02:10:30.577Z,70.87
2022-10-31T02:13:01.404Z,71.12
2022-10-31T02:15:31.630Z,70.87
2022-10-31T02:17:59.807Z,71.46
2022-10-31T02:20:35.069Z,71.36
2022-10-31T02:23:19.821Z,70.78
2022-10-31T02:26:05.954Z,69.00
2022-10-31T02:29:07.058Z,68.40
2022-10-31T02:32:20.489Z,68.21
2022-10-31T02:34:50.769Z,68.68
2022-10-31T02:37:52.732Z,69.01
2022-10-31T02:40:43.791Z,69.34
2022-10-31T02:44:09.610Z,68.91
2022-10-31T02:47:00.726Z,67.39
2022-10-31T02:49:41.646Z,67.74
2022-10-31T02:52:20.550Z,68.75
2022-10-31T02:54:49.997Z,69.54
2022-10-31T02:57:21.886Z,69.09
2022-10-31T02:59:52.329Z,69.33
2022-10-31T03:02:25.651Z,69.17
2022-10-31T03:05:17.110Z,69.41
2022-10-31T03:07:54.396Z,69.25
2022-10-31T03:10:41.859Z,69.30
2022-10-31T03:13:48.137Z,69.70
2022-10-31T03:16:33.004Z,69.48
2022-10-31T03:19:18.920Z,68.55
2022-10-31T03:21:54.136Z,68.72
2022-10-31T03:24:26.959Z,69.07
2022-10-31T03:26:57.958Z,68.86
2022-10-31T03:29:29.720Z,68.07
2022-10-31T03:32:04.668Z,68.50
2022-10-31T03:34:33.307Z,68.28
2022-10-31T03:37:04.866Z,67.46
2022-10-31T03:39:34.379Z,67.50
2022-10-31T03:42:15.227Z,68.10
2022-10-31T03:44:57.034Z,68.20
2022-10-31T03:47:24.759Z,68.27
2022-10-31T03:49:52.503Z,68.24
2022-10-31T03:52:35.345Z,68.01
2022-10-31T03:55:40.642Z,68.71
2022-10-31T03:58:28.394Z,68.75
2022-10-31T04:00:58.883Z,68.47
2022-10-31T04:03:35.814Z,68.50
2022-10-31T04:06:11.153Z,68.11
2022-10-31T04:08:47.860Z,68.45
2022-10-31T04:11:22.606Z,67.65
2022-10-31T04:14:09.898Z,68.08
2022-10-31T04:16:40.211Z,68.32
2022-10-31T04:19:07.853Z,67.53
2022-10-31T04:21:35.167Z,68.22
2022-10-31T04:24:02.415Z,68.00
2022-10-31T04:26:31.216Z,67.06
2022-10-31T04:28:58.896Z,67.12
2022-10-31T04:31:28.359Z,68.06
2022-10-31T04:33:55.949Z,68.09
2022-10-31T04:36:23.875Z,67.96
2022-10-31T04:38:51.262Z,68.22
2022-10-31T04:41:33.248Z,68.63
2022-10-31T04:44:03.058Z,69.04
2022-10-31T04:46:31.322Z,68.59
2022-10-31T04:49:02.634Z,69.07
2022-10-31T04:51:30.102Z,70.53
2022-10-31T04:53:58.878Z,70.46
2022-10-31T04:56:29.328Z,70.68
2022-10-31T04:58:59.749Z,70.27
2022-10-31T05:01:32.732Z,70.52
2022-10-31T05:04:01.297Z,70.64
2022-10-31T05:06:29.713Z,70.53
2022-10-31T05:08:57.822Z,71.14
2022-10-31T05:11:25.410Z,71.48
2022-10-31T05:13:54.943Z,70.49
2022-10-31T05:16:54.733Z,70.03
2022-10-31T05:19:47.966Z,70.03
2022-10-31T05:22:52.931Z,68.30
2022-10-31T05:25:24.469Z,67.56
2022-10-31T05:27:53.365Z,67.50
2022-10-31T05:30:28.854Z,69.07
2022-10-31T05:32:56.387Z,68.47
2022-10-31T05:35:36.059Z,68.29
2022-10-31T05:38:29.693Z,69.38
2022-10-31T05:41:04.274Z,68.80
2022-10-31T05:43:34.749Z,68.84
2022-10-31T05:46:05.597Z,70.14
2022-10-31T05:48:51.175Z,70.26
2022-10-31T05:51:37.059Z,70.04
2022-10-31T05:54:05.635Z,69.43
2022-10-31T05:56:33.007Z,68.43
2022-10-31T05:59:00.910Z,66.92
2022-10-31T06:01:28.527Z,66.61
2022-10-31T06:03:58.251Z,64.91
2022-10-31T06:06:25.701Z,64.97
2022-10-31T06:08:53.084Z,65.16
2022-10-31T06:11:23.170Z,66.30
2022-10-31T06:14:02.661Z,65.49
2022-10-31T06:16:46.323Z,64.52
2022-10-31T06:19:42.639Z,64.27
2022-10-31T06:22:14.985Z,63.62
2022-10-31T06:24:44.272Z,63.76
2022-10-31T06:27:27.963Z,65.54
2022-10-31T06:29:55.802Z,65.66
2022-10-31T06:32:32.279Z,66.07
2022-10-31T06:34:59.629Z,64.62
2022-10-31T06:37:26.960Z,63.50
2022-10-31T06:40:01.003Z,63.34
2022-10-31T06:42:28.416Z,64.49
2022-10-31T06:44:55.880Z,63.95
2022-10-31T06:48:03.607Z,63.39
2022-10-31T06:50:32.276Z,62.52
2022-10-31T06:53:01.798Z,61.46
2022-10-31T06:55:29.732Z,61.14
2022-10-31T06:58:03.135Z,60.53
2022-10-31T07:00:31.980Z,60.94
2022-10-31T07:03:07.881Z,60.55
2022-10-31T07:05:36.938Z,60.49
2022-10-31T07:08:07.915Z,61.78
2022-10-31T07:10:40.361Z,61.23
2022-10-31T07:13:15.512Z,60.54
2022-10-31T07:15:50.293Z,59.17
2022-10-31T07:18:18.000Z,58.79
2022-10-31T07:20:45.302Z,58.78
2022-10-31T07:23:13.500Z,58.20
2022-10-31T07:25:46.538Z,58.39
2022-10-31T07:28:20.800Z,58.77
2022-10-31T07:30:52.894Z,57.76
2022-10-31T07:33:23.241Z,57.24
2022-10-31T07:36:11.952Z,56.98
2022-10-31T07:38:42.275Z,56.35
2022-10-31T07:41:10.934Z,57.37
2022-10-31T07:43:42.650Z,57.25
2022-10-31T07:46:18.832Z,58.78
2022-10-31T07:49:04.618Z,58.13
2022-10-31T07:51:58.237Z,58.51
2022-10-31T07:54:44.050Z,60.04
2022-10-31T07:57:11.365Z,58.92
2022-10-31T07:59:39.616Z,57.58
2022-10-31T08:02:09.924Z,56.31
2022-10-31T08:04:49.720Z,56.14
2022-10-31T08:07:38.904Z,56.10
2022-10-31T08:10:08.807Z,55.58
2022-10-31T08:12:36.379Z,56.04
2022-10-31T08:15:08.366Z,56.07
2022-10-31T08:17:37.871Z,55.44
2022-10-31T08:20:06.900Z,54.49
2022-10-31T08:22:43.655Z,53.80
2022-10-31T08:25:11.824Z,53.32
2022-10-31T08:27:39.979Z,53.50
2022-10-31T08:30:11.125Z,53.76
2022-10-31T08:32:40.928Z,52.33
2022-10-31T08:35:44.737Z,52.24
2022-10-31T08:38:37.850Z,51.30
2022-10-31T08:41:05.327Z,51.00
2022-10-31T08:43:33.465Z,49.99
2022-10-31T08:46:02.977Z,49.45
2022-10-31T08:48:30.749Z,49.65
2022-10-31T08:50:59.860Z,48.75
2022-10-31T08:53:28.872Z,47.65
2022-10-31T08:56:25.256Z,46.80
2022-10-31T08:58:55.013Z,46.91
2022-10-31T09:01:32.093Z,46.88
2022-10-31T09:03:59.663Z,46.84
2022-10-31T09:06:27.748Z,45.35
2022-10-31T09:08:55.293Z,44.60
2022-10-31T09:11:25.843Z,44.80
2022-10-31T09:14:11.513Z,45.21
2022-10-31T09:16:57.111Z,45.51
2022-10-31T09:19:31.876Z,45.31
2022-10-31T09:21:59.202Z,46.12
2022-10-31T09:24:27.466Z,46.39
2022-10-31T09:26:54.767Z,46.95
2022-10-31T09:29:27.729Z,47.59
2022-10-31T09:31:59.214Z,48.16
2022-10-31T09:34:29.140Z,47.04
2022-10-31T09:37:22.279Z,47.92
2022-10-31T09:39:50.146Z,47.41
2022-10-31T09:42:36.407Z,47.12
2022-10-31T09:45:30.947Z,44.84
2022-10-31T09:48:23.284Z,47.19
2022-10-31T09:51:05.990Z,45.94
2022-10-31T09:53:53.251Z,44.36
2022-10-31T09:56:25.850Z,44.23
2022-10-31T09:59:01.852Z,44.43
2022-10-31T10:01:41.447Z,44.94
2022-10-31T10:04:30.476Z,43.04
2022-10-31T10:07:49.936Z,41.88
2022-10-31T10:10:33.770Z,41.72
2022-10-31T10:13:51.642Z,41.87
2022-10-31T10:16:51.379Z,39.96
2022-10-31T10:19:36.782Z,40.98
2022-10-31T10:22:23.074Z,40.78
2022-10-31T10:24:59.452Z,40.80
2022-10-31T10:27:53.971Z,40.32
2022-10-31T10:30:34.650Z,39.39
2022-10-31T10:33:09.632Z,39.77
2022-10-31T10:35:44.688Z,40.43
2022-10-31T10:38:18.900Z,39.61
2022-10-31T10:40:47.668Z,39.14
2022-10-31T10:43:40.417Z,38.22
2022-10-31T10:46:45.305Z,39.19
2022-10-31T10:49:20.424Z,37.99
2022-10-31T10:52:13.133Z,38.42
2022-10-31T10:55:19.943Z,38.88
2022-10-31T10:57:57.734Z,39.02
2022-10-31T11:00:32.752Z,38.49
2022-10-31T11:03:00.866Z,37.69
2022-10-31T11:05:52.485Z,37.93
2022-10-31T11:08:28.397Z,39.08
2022-10-31T11:11:07.620Z,39.28
2022-10-31T11:13:37.584Z,38.46
2022-10-31T11:16:10.217Z,38.63
2022-10-31T11:18:46.871Z,38.20
2022-10-31T11:21:28.142Z,37.67
2022-10-31T11:24:10.584Z,37.04
2022-10-31T11:26:43.092Z,36.71
2022-10-31T11:29:26.153Z,37.37
2022-10-31T11:31:58.356Z,37.79
2022-10-31T11:34:34.687Z,38.38
2022-10-31T11:37:24.805Z,38.92
2022-10-31T11:40:00.202Z,38.32
2022-10-31T11:42:31.763Z,37.78
2022-10-31T11:44:59.403Z,37.33
2022-10-31T11:47:31.197Z,36.71
2022-10-31T11:50:03.168Z,37.41
2022-10-31T11:52:33.616Z,36.57
2022-10-31T11:55:32.471Z,34.71
2022-10-31T11:58:00.241Z,33.36
2022-10-31T12:00:32.779Z,32.82
2022-10-31T12:03:24.458Z,32.06
2022-10-31T12:06:06.985Z,34.04
2022-10-31T12:08:37.400Z,34.46
2022-10-31T12:11:16.605Z,35.44
2022-10-31T12:14:16.434Z,35.13
2022-10-31T12:17:00.594Z,35.62
2022-10-31T12:20:03.001Z,37.12
2022-10-31T12:22:58.072Z,39.42
2022-10-31T12:25:55.054Z,38.25
2022-10-31T12:28:49.910Z,37.33
2022-10-31T12:31:30.591Z,38.04
2022-10-31T12:34:12.797Z,38.10
2022-10-31T12:37:04.687Z,37.35
2022-10-31T12:39:37.879Z,37.87
2022-10-31T12:42:39.700Z,39.25
2022-10-31T12:45:09.764Z,40.17
2022-10-31T12:47:44.692Z,39.67
2022-10-31T12:50:14.814Z,39.49
2022-10-31T12:53:02.435Z,40.16
2022-10-31T12:56:02.118Z,40.06
2022-10-31T12:58:41.775Z,39.72
2022-10-31T13:01:16.053Z,39.82
2022-10-31T13:04:03.062Z,40.39
2022-10-31T13:06:51.751Z,39.97
2022-10-31T13:09:31.845Z,39.26
2022-10-31T13:12:11.841Z,39.20
2022-10-31T13:14:48.711Z,39.54
2022-10-31T13:17:42.818Z,39.00
2022-10-31T13:20:25.942Z,38.48
2022-10-31T13:23:48.327Z,39.29
2022-10-31T13:26:23.861Z,38.29
2022-10-31T13:29:05.302Z,38.77
2022-10-31T13:31:32.818Z,38.11
2022-10-31T13:34:11.288Z,38.35
2022-10-31T13:37:22.637Z,38.43
2022-10-31T13:40:05.031Z,38.61
2022-10-31T13:42:47.112Z,39.03
2022-10-31T13:45:20.088Z,38.92
2022-10-31T13:48:16.786Z,39.14
2022-10-31T13:50:57.272Z,38.67
2022-10-31T13:53:52.047Z,39.58
2022-10-31T13:56:21.950Z,39.26
2022-10-31T13:59:26.685Z,39.77
2022-10-31T14:02:00.985Z,39.51
2022-10-31T14:04:38.353Z,40.31
2022-10-31T14:07:16.520Z,40.64
2022-10-31T14:09:52.761Z,40.36
2022-10-31T14:12:27.794Z,41.56
2022-10-31T14:14:58.614Z,42.09
2022-10-31T14:17:29.071Z,42.25
2022-10-31T14:20:11.945Z,42.26
2022-10-31T14:22:42.881Z,41.83
2022-10-31T14:25:30.744Z,42.26
2022-10-31T14:27:59.853Z,42.40
2022-10-31T14:30:29.995Z,42.47
2022-10-31T14:33:03.545Z,42.19
2022-10-31T14:36:08.345Z,42.38
2022-10-31T14:38:44.621Z,42.71
2022-10-31T14:41:20.462Z,43.38
2022-10-31T14:44:38.686Z,44.75
2022-10-31T14:47:40.964Z,45.03
2022-10-31T14:50:33.265Z,45.68
2022-10-31T14:53:04.954Z,45.92
2022-10-31T14:55:33.124Z,47.09
2022-10-31T14:58:07.554Z,47.41
2022-10-31T15:00:37.075Z,48.48
2022-10-31T15:03:19.443Z,48.81
2022-10-31T15:05:52.494Z,49.76
2022-10-31T15:08:40.782Z,49.93
2022-10-31T15:11:16.926Z,50.98
2022-10-31T15:13:54.369Z,52.22
2022-10-31T15:19:08.329Z,54.60
2022-10-31T15:21:43.135Z,55.68
2022-10-31T15:24:19.940Z,56.25
2022-10-31T15:26:51.312Z,57.44
2022-10-31T15:29:23.750Z,58.27
2022-10-31T15:32:19.730Z,59.40
2022-10-31T15:34:47.152Z,59.88
2022-10-31T15:37:17.431Z,60.65
2022-10-31T15:39:48.519Z,60.80
2022-10-31T15:42:21.299Z,61.50
2022-10-31T15:44:54.340Z,61.28
2022-10-31T15:47:27.933Z,60.68
2022-10-31T15:49:57.033Z,60.72
2022-10-31T15:52:42.398Z,60.84
2022-10-31T15:55:16.958Z,60.95
2022-10-31T15:57:46.626Z,61.32
2022-10-31T16:00:30.553Z,62.08
2022-10-31T16:03:31.252Z,61.35
2022-10-31T16:06:05.030Z,61.66
2022-10-31T16:08:32.308Z,62.43
2022-10-31T16:11:25.156Z,61.65
2022-10-31T16:14:07.386Z,62.19
2022-10-31T16:16:41.361Z,62.37
2022-10-31T16:19:25.372Z,62.70
2022-10-31T16:22:03.482Z,62.60
2022-10-31T16:24:34.411Z,62.91
2022-10-31T16:27:07.244Z,63.29
2022-10-31T16:29:34.635Z,62.55
2022-10-31T16:32:02.182Z,62.76
2022-10-31T16:34:29.513Z,62.30
2022-10-31T16:36:56.924Z,62.81
2022-10-31T16:39:26.417Z,63.64
2022-10-31T16:41:57.125Z,64.13
2022-10-31T16:44:27.078Z,64.57
2022-10-31T16:47:10.687Z,64.26
2022-10-31T16:49:38.215Z,64.30
2022-10-31T16:52:07.006Z,64.57
2022-10-31T16:54:34.316Z,65.03
2022-10-31T16:57:03.821Z,64.96
2022-10-31T16:59:33.152Z,65.24
2022-10-31T17:02:01.781Z,65.17
2022-10-31T17:04:29.627Z,64.98
2022-10-31T17:06:57.087Z,65.16
2022-10-31T17:09:24.397Z,65.45
2022-10-31T17:11:54.333Z,65.63
2022-10-31T17:14:22.411Z,66.12
2022-10-31T17:16:50.446Z,66.35
2022-10-31T17:19:17.864Z,66.40
2022-10-31T17:21:45.550Z,67.05
2022-10-31T17:24:15.307Z,67.48
2022-10-31T17:26:43.330Z,67.55
2022-10-31T17:29:10.731Z,67.83
2022-10-31T17:31:39.546Z,68.35
2022-10-31T17:34:08.859Z,68.49
2022-10-31T17:36:36.417Z,67.56
2022-10-31T17:39:09.961Z,67.22
2022-10-31T17:41:37.372Z,67.71
2022-10-31T17:44:04.955Z,68.17
2022-10-31T17:46:32.417Z,68.20
2022-10-31T17:49:02.618Z,68.57
2022-10-31T17:51:30.114Z,69.19
2022-10-31T17:53:59.217Z,69.19
2022-10-31T17:56:26.991Z,69.73
2022-10-31T17:58:57.373Z,70.22
2022-10-31T18:01:25.150Z,70.15
2022-10-31T18:03:52.796Z,70.04
2022-10-31T18:06:21.605Z,68.76
2022-10-31T18:08:48.944Z,69.16
2022-10-31T18:11:22.248Z,69.38
2022-10-31T18:13:58.593Z,68.45
2022-10-31T18:16:26.686Z,67.80
2022-10-31T18:18:58.840Z,67.79
2022-10-31T18:21:26.708Z,68.80
2022-10-31T18:23:58.654Z,69.18
2022-10-31T18:26:27.727Z,69.22
2022-10-31T18:28:55.758Z,69.62
2022-10-31T18:31:23.411Z,69.66
2022-10-31T18:33:54.953Z,69.83
2022-10-31T18:36:22.937Z,69.43
2022-10-31T18:38:50.442Z,69.75
2022-10-31T18:41:17.892Z,67.83
2022-10-31T18:43:45.384Z,67.40
2022-10-31T18:46:15.394Z,66.59
2022-10-31T18:48:44.710Z,67.31
2022-10-31T18:51:18.590Z,66.46
2022-10-31T18:53:57.144Z,66.17
2022-10-31T18:56:25.201Z,66.52
2022-10-31T18:58:52.906Z,66.82
2022-10-31T19:01:23.188Z,67.03
2022-10-31T19:03:55.993Z,67.23
2022-10-31T19:06:25.501Z,67.52
2022-10-31T19:08:59.327Z,67.77
2022-10-31T19:11:27.527Z,67.25
2022-10-31T19:13:55.063Z,67.40
2022-10-31T19:16:22.350Z,67.53
2022-10-31T19:18:49.820Z,68.19
2022-10-31T19:21:18.511Z,68.59
2022-10-31T19:23:46.449Z,68.61
2022-10-31T19:26:14.597Z,68.32
2022-10-31T19:28:42.758Z,68.56
2022-10-31T19:31:10.781Z,65.82
2022-10-31T19:33:38.790Z,66.86
2022-10-31T19:36:15.202Z,65.95
2022-10-31T19:38:48.068Z,65.02
2022-10-31T19:41:22.167Z,64.16
2022-10-31T19:43:50.048Z,64.93
2022-10-31T19:46:22.695Z,64.96
2022-10-31T19:49:06.794Z,65.32
2022-10-31T19:51:34.350Z,64.81
2022-10-31T19:54:01.800Z,64.95
2022-10-31T19:56:29.630Z,64.99
2022-10-31T19:59:00.023Z,64.37
2022-10-31T20:01:28.591Z,64.76
2022-10-31T20:03:56.115Z,64.62
2022-10-31T20:06:28.163Z,63.81
2022-10-31T20:08:56.781Z,64.12
2022-10-31T20:11:26.617Z,64.80
2022-10-31T20:13:58.644Z,63.83
2022-10-31T20:16:27.342Z,63.53
2022-10-31T20:18:55.273Z,64.34
2022-10-31T20:21:26.623Z,64.69
2022-10-31T20:24:01.502Z,64.94
2022-10-31T20:26:31.382Z,65.42
2022-10-31T20:29:00.420Z,65.49
2022-10-31T20:31:31.729Z,64.98
2022-10-31T20:33:59.216Z,62.48
2022-10-31T20:36:28.964Z,62.86
2022-10-31T20:38:56.332Z,61.73
2022-10-31T20:41:23.959Z,61.47
2022-10-31T20:43:52.513Z,62.35
2022-10-31T20:46:22.374Z,62.37
2022-10-31T20:48:50.619Z,62.59
2022-10-31T20:51:21.713Z,61.77
2022-10-31T20:53:51.044Z,61.82
2022-10-31T20:56:20.665Z,62.58
2022-10-31T20:58:50.691Z,62.45
2022-10-31T21:01:21.207Z,62.05
2022-10-31T21:03:49.356Z,62.30
2022-10-31T21:06:18.455Z,62.41
2022-10-31T21:08:45.942Z,62.82
2022-10-31T21:11:18.876Z,63.40
2022-10-31T21:13:47.775Z,63.64
2022-10-31T21:16:19.540Z,63.97
2022-10-31T21:18:48.126Z,64.25
2022-10-31T21:21:29.170Z,64.23
2022-10-31T21:24:02.125Z,64.77
2022-10-31T21:26:33.723Z,64.87
2022-10-31T21:29:02.624Z,65.26
2022-10-31T21:31:30.029Z,65.46
2022-10-31T21:33:57.320Z,65.48
2022-10-31T21:36:26.514Z,65.67
2022-10-31T21:38:55.149Z,65.63
2022-10-31T21:41:24.699Z,64.38
2022-10-31T21:43:54.568Z,64.14
2022-10-31T21:46:30.714Z,62.92
2022-10-31T21:48:58.465Z,63.42
2022-10-31T21:51:35.922Z,63.95
2022-10-31T21:54:23.706Z,64.43
2022-10-31T21:56:51.889Z,62.16
2022-10-31T21:59:19.290Z,62.33
2022-10-31T22:01:46.802Z,62.59
2022-10-31T22:04:14.363Z,62.55
2022-10-31T22:06:41.772Z,62.33
2022-10-31T22:09:11.948Z,61.23
2022-10-31T22:11:41.093Z,58.48
2022-10-31T22:14:12.092Z,59.79
2022-10-31T22:16:40.126Z,59.66
2022-10-31T22:19:10.246Z,60.12
2022-10-31T22:21:42.990Z,60.08
2022-10-31T22:24:11.246Z,60.42
2022-10-31T22:26:39.520Z,60.47
2022-10-31T22:29:12.053Z,60.50
2022-10-31T22:31:42.086Z,61.25
2022-10-31T22:34:10.351Z,63.12
2022-10-31T22:36:38.320Z,65.17
2022-10-31T22:39:06.739Z,67.03
2022-10-31T22:41:36.598Z,68.44
2022-10-31T22:44:05.710Z,69.50
2022-10-31T22:46:36.032Z,69.99
2022-10-31T22:49:06.919Z,70.53
2022-10-31T22:51:37.931Z,70.93
2022-10-31T22:54:08.027Z,67.95
2022-10-31T22:56:35.895Z,65.41
2022-10-31T22:59:03.848Z,67.18
2022-10-31T23:01:33.331Z,68.18
2022-10-31T23:04:02.173Z,68.48
2022-10-31T23:06:31.977Z,67.92
2022-10-31T23:09:04.768Z,67.29
2022-10-31T23:11:34.852Z,67.46
2022-10-31T23:14:14.066Z,70.08
2022-10-31T23:17:00.813Z,64.86
2022-10-31T23:19:30.907Z,59.38
2022-10-31T23:22:02.318Z,56.78
2022-10-31T23:24:39.406Z,58.05
2022-10-31T23:27:10.073Z,58.15
2022-10-31T23:29:37.687Z,58.25
2022-10-31T23:32:07.938Z,58.22
2022-10-31T23:34:35.419Z,57.79
2022-10-31T23:37:02.911Z,57.97
2022-10-31T23:39:30.481Z,59.83
2022-10-31T23:42:00.521Z,65.07
2022-10-31T23:44:29.118Z,65.63
2022-10-31T23:46:56.651Z,64.68
2022-10-31T23:49:24.108Z,65.25
2022-10-31T23:51:51.589Z,63.06
2022-10-31T23:54:19.152Z,62.03
2022-10-31T23:56:46.475Z,64.23
2022-10-31T23:59:13.796Z,62.73
